Madison, WI

2:35 PM CST on November 24, 2014 (GMT -0600)
Middleton | Change Station
CLOSE
Current Station
Airport
Location: Middleton,
Elevation: 928 ft
Nearby Weather Stations
Active Advisory: Winter Weather Advisory

Elev 928 ft 43.12 °N, 89.53 °W | Updated 20 minutes ago

Snow
Snow
31 °F
Feels Like 19 °F
N
18
Wind Variable Wind from West
Gusts 22 mph

Today
High -- | Low -- °F
--% Chance of Precip.
Yesterday
High -- | Low -- °F
Precip. -- in
7:01 AM 4:26 PM
Waxing Crescent, 7% visible
Pressure 29.36 in
Visibility 0.8 miles
Clouds Overcast 1100 ft
Windchill 19 °F
Dew Point 30 °F
Humidity 96%
Rainfall 0.02 in
Snow Depth Not available.
UV 0 out of 12
Pollen .10 out of 12
Air Quality Not available.
Flu Activity Not available.
METAR KC29 242015Z AUTO 27016G19KT 3/4SM OVC011 M01/M01 A2936 RMK AO1 T10061012

More Conditions Fewer Conditions

Pressure 29.36 in
Visibility 0.8 miles
Clouds Overcast 1100 ft
Windchill 19 °F
Dew Point 30 °F
Humidity 96%
Rainfall 0.02 in
Snow Depth Not available.
UV 0 out of 12
Pollen .10 out of 12
Air Quality Not available.
Flu Activity Not available.
METAR KC29 242015Z AUTO 27016G19KT 3/4SM OVC011 M01/M01 A2936 RMK AO1 T10061012

More Conditions Fewer Conditions

10-Day Weather Forecast

Almanac

Astronomy

Nov. 24, 2014 Rise Set
Actual Time
Civil Twilight
Nautical Twilight
Astronomical Twilight
Moon
Length of Visible Light
Length of Day
Tomorrow will be .
, % of the Moon is Illuminated

Today's Extremes

State Highs State Lows

Community

WunderPhotos

Upload Photos

1,773,406 photos uploaded!

WunderBlogs® & News

Nearby

Air Quality

  Air Quality AQ Index Pollutant
Not available.

Snow Depth

Station Depth Elevation

Earthquake Activity

City Distance Mag. Time & Date
Minimum magnitude displayed is 2.5.

Coastal Water Temperatures

Place Temperature

Nearby Weather Stations